Terminal Aerodrome Forecast
Issued by NWS Charleston, SC

Home | Current Version | Previous Version | Text Only | Print | Product List | Glossary On
Versions: 1 2 3 4 5 6 7 8 9 10 11 12 13 14 15 16 17
000
FTUS42 KCHS 290534
TAFCHS
TAF
KCHS 290534Z 2906/3006 05004KT P6SM FEW025
     FM291000 03004KT P6SM BKN035
     FM291500 08009KT P6SM VCSH SCT035 BKN050
     FM292330 07004KT P6SM FEW030=

USA.gov is the U.S. government's official web portal to all federal, state and local government web resources and services.